createdAt,value
2019-05-17T00:00:01.180Z,7.60
2019-05-17T00:02:34.220Z,7.78
2019-05-17T00:05:07.016Z,8.45
2019-05-17T00:07:39.538Z,8.48
2019-05-17T00:10:12.580Z,8.27
2019-05-17T00:12:46.904Z,7.67
2019-05-17T00:15:18.219Z,7.67
2019-05-17T00:17:50.118Z,6.20
2019-05-17T00:20:22.405Z,5.92
2019-05-17T00:22:54.238Z,7.10
2019-05-17T00:25:27.362Z,8.07
2019-05-17T00:27:59.484Z,7.92
2019-05-17T00:30:31.743Z,8.40
2019-05-17T00:33:03.630Z,8.33
2019-05-17T00:35:37.643Z,10.75
2019-05-17T00:38:09.702Z,8.53
2019-05-17T00:40:41.712Z,9.63
2019-05-17T00:43:13.614Z,9.90
2019-05-17T00:45:46.803Z,8.97
2019-05-17T00:48:20.250Z,8.00
2019-05-17T00:50:54.106Z,10.10
2019-05-17T00:53:26.916Z,8.23
2019-05-17T00:55:59.011Z,9.40
2019-05-17T00:58:30.830Z,10.37
2019-05-17T01:01:02.818Z,7.97
2019-05-17T01:03:36.313Z,10.07
2019-05-17T01:06:10.324Z,10.38
2019-05-17T01:08:42.295Z,9.70
2019-05-17T01:11:16.377Z,8.88
2019-05-17T01:13:47.861Z,10.73
2019-05-17T01:16:19.833Z,10.57
2019-05-17T01:18:52.115Z,11.33
2019-05-17T01:21:26.268Z,11.95
2019-05-17T01:23:58.213Z,11.67
2019-05-17T01:26:30.351Z,10.93
2019-05-17T01:29:02.264Z,10.28
2019-05-17T01:31:34.196Z,12.50
2019-05-17T01:34:07.290Z,11.67
2019-05-17T01:36:40.153Z,12.47
2019-05-17T01:39:17.183Z,13.20
2019-05-17T01:41:46.842Z,10.75
2019-05-17T01:44:18.865Z,10.58
2019-05-17T01:46:50.741Z,11.80
2019-05-17T01:49:22.653Z,13.08
2019-05-17T01:51:56.869Z,11.70
2019-05-17T01:54:28.844Z,11.60
2019-05-17T01:57:00.969Z,11.60
2019-05-17T01:59:32.722Z,10.48
2019-05-17T02:02:07.759Z,9.93
2019-05-17T02:04:39.553Z,11.03
2019-05-17T02:07:11.999Z,10.08
2019-05-17T02:09:43.747Z,11.48
2019-05-17T02:12:17.309Z,11.60
2019-05-17T02:14:49.248Z,11.15
2019-05-17T02:17:22.490Z,11.27
2019-05-17T02:19:54.316Z,12.10
2019-05-17T02:22:27.196Z,10.72
2019-05-17T02:24:59.427Z,10.08
2019-05-17T02:27:38.226Z,11.28
2019-05-17T02:30:07.461Z,10.03
2019-05-17T02:32:43.103Z,10.53
2019-05-17T02:35:15.281Z,9.73
2019-05-17T02:37:47.474Z,10.23
2019-05-17T02:40:22.706Z,9.40
2019-05-17T02:42:54.677Z,7.83
2019-05-17T02:45:27.310Z,9.48
2019-05-17T02:47:59.386Z,10.43
2019-05-17T02:50:33.186Z,10.43
2019-05-17T02:53:05.410Z,10.03
2019-05-17T02:55:37.212Z,10.38
2019-05-17T02:58:09.079Z,10.15
2019-05-17T03:00:43.963Z,8.75
2019-05-17T03:03:14.657Z,11.40
2019-05-17T03:05:46.441Z,10.70
2019-05-17T03:08:18.544Z,10.03
2019-05-17T03:10:53.171Z,9.60
2019-05-17T03:13:24.041Z,10.37
2019-05-17T03:15:55.810Z,11.87
2019-05-17T03:18:27.685Z,10.17
2019-05-17T03:21:03.344Z,7.85
2019-05-17T03:23:33.357Z,11.80
2019-05-17T03:26:05.195Z,8.20
2019-05-17T03:28:37.094Z,9.05
2019-05-17T03:31:11.365Z,8.88
2019-05-17T03:33:45.928Z,14.03
2019-05-17T03:36:18.154Z,13.87
2019-05-17T03:38:53.438Z,9.75
2019-05-17T03:41:28.905Z,13.28
2019-05-17T03:43:58.262Z,9.57
2019-05-17T03:46:33.168Z,8.05
2019-05-17T03:49:04.174Z,8.53
2019-05-17T03:51:36.536Z,10.30
2019-05-17T03:54:09.084Z,10.88
2019-05-17T03:56:42.700Z,9.43
2019-05-17T03:59:14.591Z,10.10
2019-05-17T04:01:46.362Z,9.15
2019-05-17T04:04:18.562Z,9.25
2019-05-17T04:06:52.631Z,7.90
2019-05-17T04:09:24.630Z,9.95
2019-05-17T05:13:35.076Z,135.73
2019-05-17T05:16:06.845Z,27.33
2019-05-17T05:18:38.714Z,21.63
2019-05-17T05:21:12.222Z,20.30
2019-05-17T05:23:44.056Z,21.77
2019-05-17T05:26:15.863Z,21.35
2019-05-17T05:28:49.677Z,21.95
2019-05-17T05:31:22.772Z,13.53
2019-05-17T05:33:54.770Z,16.77
2019-05-17T05:36:26.573Z,21.07
2019-05-17T05:38:58.702Z,20.95
2019-05-17T05:41:32.036Z,20.60
2019-05-17T05:44:04.476Z,20.52
2019-05-17T05:46:36.341Z,23.65
2019-05-17T05:49:08.396Z,17.90
2019-05-17T05:51:42.279Z,19.05
2019-05-17T05:54:16.079Z,19.52
2019-05-17T05:56:48.830Z,17.55
2019-05-17T05:59:22.455Z,27.27
2019-05-17T06:01:54.950Z,21.62
2019-05-17T06:04:27.034Z,25.48
2019-05-17T06:06:58.817Z,22.55
2019-05-17T06:09:31.843Z,27.20
2019-05-17T06:12:03.812Z,22.32
2019-05-17T06:14:35.665Z,28.00
2019-05-17T06:17:07.481Z,31.48
2019-05-17T06:19:39.540Z,36.83
2019-05-17T06:22:12.014Z,35.75
2019-05-17T06:24:44.895Z,34.67
2019-05-17T06:27:16.744Z,36.90
2019-05-17T06:29:51.333Z,33.25
2019-05-17T06:32:23.000Z,36.48
2019-05-17T06:34:56.348Z,36.38
2019-05-17T06:37:28.164Z,30.65
2019-05-17T06:40:02.415Z,33.30
2019-05-17T06:42:40.962Z,37.83
2019-05-17T06:45:12.216Z,34.08
2019-05-17T06:47:43.104Z,38.60
2019-05-17T06:50:16.911Z,37.93
2019-05-17T06:52:49.014Z,36.15
2019-05-17T06:55:21.165Z,35.75
2019-05-17T06:57:53.628Z,37.17
2019-05-17T07:00:26.779Z,35.63
2019-05-17T07:03:00.541Z,37.20
2019-05-17T07:05:34.550Z,40.78
2019-05-17T07:08:06.459Z,47.75
2019-05-17T07:10:39.784Z,40.45
2019-05-17T07:13:11.834Z,35.65
2019-05-17T07:15:47.845Z,45.73
2019-05-17T07:18:19.319Z,37.05
2019-05-17T07:20:50.930Z,44.18
2019-05-17T07:23:23.065Z,49.55
2019-05-17T07:25:54.978Z,42.27
2019-05-17T07:28:26.877Z,39.15
2019-05-17T07:31:00.366Z,36.55
2019-05-17T07:33:32.527Z,38.55
2019-05-17T07:36:05.195Z,36.98
2019-05-17T07:38:39.481Z,39.08
2019-05-17T07:41:11.246Z,35.15
2019-05-17T07:57:10.169Z,36.55
2019-05-17T07:59:41.744Z,35.28
2019-05-17T08:02:13.642Z,34.38
2019-05-17T08:04:45.422Z,33.00
2019-05-17T08:07:19.525Z,35.68
2019-05-17T08:09:50.818Z,35.03
2019-05-17T08:12:22.831Z,31.60
2019-05-17T08:14:54.887Z,36.20
2019-05-17T08:17:27.209Z,35.68
2019-05-17T08:20:00.610Z,38.95
2019-05-17T08:22:33.031Z,34.90
2019-05-17T08:25:05.050Z,30.88
2019-05-17T08:27:37.180Z,33.30
2019-05-17T08:30:12.698Z,36.13
2019-05-17T08:32:44.968Z,37.40
2019-05-17T08:35:19.697Z,38.80
2019-05-17T08:37:53.540Z,39.20
2019-05-17T08:40:25.510Z,39.92
2019-05-17T08:43:00.006Z,43.25
2019-05-17T08:45:31.246Z,36.48
2019-05-17T08:48:03.452Z,35.40
2019-05-17T08:50:35.559Z,42.50
2019-05-17T08:53:07.698Z,32.80
2019-05-17T08:55:40.862Z,34.13
2019-05-17T08:58:13.338Z,33.08
2019-05-17T09:00:45.166Z,26.82
2019-05-17T09:03:19.433Z,19.92
2019-05-17T09:05:52.711Z,19.20
2019-05-17T09:08:24.264Z,18.82
2019-05-17T09:10:56.099Z,21.17
2019-05-17T09:13:29.853Z,19.15
2019-05-17T09:16:02.262Z,18.32
2019-05-17T09:18:34.085Z,17.25
2019-05-17T09:21:06.189Z,17.37
2019-05-17T09:23:39.678Z,18.62
2019-05-17T09:26:11.595Z,19.32
2019-05-17T09:28:43.400Z,23.55
2019-05-17T09:31:15.197Z,16.73
2019-05-17T09:33:49.571Z,16.17
2019-05-17T09:36:21.065Z,16.10
2019-05-17T09:38:52.893Z,17.92
2019-05-17T09:41:24.701Z,18.55
2019-05-17T09:44:09.610Z,15.60
2019-05-17T09:46:31.049Z,16.17
2019-05-17T09:49:03.050Z,15.95
2019-05-17T09:51:35.089Z,14.53
2019-05-17T09:54:10.095Z,16.80
2019-05-17T09:56:41.488Z,16.48
2019-05-17T09:59:13.680Z,17.05
2019-05-17T10:01:45.583Z,20.23
2019-05-17T10:04:19.754Z,16.70
2019-05-17T10:06:52.891Z,18.42
2019-05-17T10:09:28.607Z,16.62
2019-05-17T10:12:00.404Z,19.87
2019-05-17T10:14:32.376Z,15.63
2019-05-17T10:17:04.883Z,15.93
2019-05-17T10:19:36.817Z,12.47
2019-05-17T10:22:10.402Z,17.20
2019-05-17T10:24:42.639Z,14.25
2019-05-17T10:27:14.835Z,17.90
2019-05-17T10:29:46.772Z,15.08
2019-05-17T10:32:20.495Z,19.05
2019-05-17T10:34:52.431Z,17.67
2019-05-17T10:37:24.398Z,16.07
2019-05-17T10:39:56.455Z,18.87
2019-05-17T10:42:30.597Z,16.50
2019-05-17T10:45:02.143Z,19.67
2019-05-17T10:47:34.000Z,16.42
2019-05-17T10:50:07.076Z,16.65
2019-05-17T10:52:40.875Z,19.02
2019-05-17T10:55:13.168Z,20.57
2019-05-17T10:57:44.999Z,19.12
2019-05-17T11:00:19.824Z,19.70
2019-05-17T11:02:52.425Z,19.87
2019-05-17T11:05:24.515Z,21.77
2019-05-17T11:07:56.983Z,18.95
2019-05-17T11:10:30.000Z,17.98
2019-05-17T11:13:02.033Z,19.48
2019-05-17T11:15:34.102Z,16.23
2019-05-17T11:18:05.980Z,14.25
2019-05-17T11:20:38.250Z,17.37
2019-05-17T11:23:10.435Z,14.70
2019-05-17T11:25:45.679Z,10.90
2019-05-17T11:28:16.578Z,13.53
2019-05-17T11:30:49.160Z,13.60
2019-05-17T11:33:21.039Z,14.50
2019-05-17T11:35:53.198Z,12.70
2019-05-17T11:38:25.536Z,15.08
2019-05-17T11:40:57.876Z,16.40
2019-05-17T11:43:30.643Z,14.80
2019-05-17T11:46:02.811Z,13.10
2019-05-17T11:48:35.012Z,12.98
2019-05-17T11:51:07.400Z,14.33
2019-05-17T11:53:40.337Z,14.90
2019-05-17T11:56:12.730Z,10.85
2019-05-17T11:58:44.925Z,13.72
2019-05-17T12:01:17.280Z,10.85
2019-05-17T12:03:49.138Z,13.53
2019-05-17T12:06:21.194Z,12.43
2019-05-17T12:08:53.350Z,11.12
2019-05-17T12:11:25.847Z,14.33
2019-05-17T12:13:58.156Z,14.87
2019-05-17T12:16:30.458Z,11.97
2019-05-17T12:19:02.733Z,12.33
2019-05-17T12:21:35.120Z,11.05
2019-05-17T12:24:08.196Z,10.78
2019-05-17T12:26:40.889Z,12.37
2019-05-17T12:29:13.449Z,12.07
2019-05-17T12:31:45.820Z,17.25
2019-05-17T12:34:20.235Z,13.65
2019-05-17T12:36:52.987Z,16.73
2019-05-17T12:39:25.169Z,14.65
2019-05-17T12:41:57.784Z,14.45
2019-05-17T12:44:29.883Z,16.93
2019-05-17T12:47:01.767Z,16.15
2019-05-17T12:49:33.835Z,16.02
2019-05-17T12:52:06.125Z,11.73
2019-05-17T12:54:38.364Z,17.00
2019-05-17T12:57:10.591Z,11.60
2019-05-17T12:59:42.890Z,6.42
2019-05-17T13:02:15.278Z,8.60
2019-05-17T13:04:47.409Z,8.15
2019-05-17T13:07:20.043Z,9.70
2019-05-17T13:09:52.545Z,11.55
2019-05-17T13:12:24.737Z,11.80
2019-05-17T13:14:56.865Z,9.33
2019-05-17T13:17:29.210Z,7.60
2019-05-17T13:20:02.208Z,10.75
2019-05-17T13:22:35.962Z,9.40
2019-05-17T13:25:10.041Z,6.37
2019-05-17T13:27:43.176Z,4.95
2019-05-17T13:30:16.210Z,5.42
2019-05-17T13:32:48.621Z,9.30
2019-05-17T13:35:21.283Z,6.90
2019-05-17T13:37:54.072Z,5.65
2019-05-17T13:40:27.243Z,9.03
2019-05-17T13:42:59.957Z,8.50
2019-05-17T13:45:32.567Z,6.53
2019-05-17T13:48:05.304Z,9.70
2019-05-17T13:50:38.038Z,8.45
2019-05-17T13:53:11.000Z,6.67
2019-05-17T13:55:43.743Z,7.70
2019-05-17T13:58:16.396Z,9.13
2019-05-17T14:00:49.332Z,9.60
2019-05-17T14:03:21.862Z,6.78
2019-05-17T14:05:54.241Z,6.42
2019-05-17T14:08:27.459Z,8.40
2019-05-17T14:11:00.117Z,10.45
2019-05-17T14:13:32.876Z,12.40
2019-05-17T14:16:05.066Z,9.65
2019-05-17T14:18:37.512Z,13.35
2019-05-17T14:21:10.413Z,7.55
2019-05-17T14:23:42.571Z,9.60
2019-05-17T14:26:14.926Z,5.95
2019-05-17T14:28:47.629Z,6.17
2019-05-17T14:31:20.160Z,6.97
2019-05-17T14:33:53.203Z,6.20
2019-05-17T14:36:25.743Z,6.28
2019-05-17T14:38:57.981Z,6.65
2019-05-17T14:41:30.035Z,6.35
2019-05-17T14:44:02.128Z,10.32
2019-05-17T14:46:34.048Z,9.50
2019-05-17T14:49:06.137Z,6.45
2019-05-17T14:51:37.992Z,9.88
2019-05-17T14:54:10.107Z,7.65
2019-05-17T14:56:42.013Z,8.08
2019-05-17T14:59:15.216Z,3.58
2019-05-17T15:01:47.075Z,7.17
2019-05-17T15:04:19.286Z,20.23
2019-05-17T15:06:51.104Z,6.28
2019-05-17T15:09:23.503Z,4.25
2019-05-17T15:11:55.677Z,4.58
2019-05-17T15:14:29.654Z,7.58
2019-05-17T15:17:01.535Z,8.48
2019-05-17T15:19:33.937Z,14.60
2019-05-17T15:22:05.862Z,8.20
2019-05-17T15:24:37.970Z,4.42
2019-05-17T15:27:10.212Z,4.67
2019-05-17T15:29:42.209Z,7.75
2019-05-17T15:32:14.003Z,7.00
2019-05-17T15:34:46.092Z,6.53
2019-05-17T15:37:18.193Z,6.28
2019-05-17T15:39:50.342Z,4.92
2019-05-17T15:42:22.520Z,4.42
2019-05-17T15:44:54.409Z,6.65
2019-05-17T15:47:27.436Z,4.03
2019-05-17T15:49:59.417Z,6.33
2019-05-17T15:52:31.242Z,6.15
2019-05-17T15:55:03.231Z,7.28
2019-05-17T15:57:35.297Z,9.03
2019-05-17T16:00:08.463Z,5.12
2019-05-17T16:02:40.527Z,6.70
2019-05-17T16:05:12.622Z,9.48
2019-05-17T16:07:44.506Z,6.90
2019-05-17T16:10:16.774Z,6.95
2019-05-17T16:13:01.978Z,9.10
2019-05-17T16:15:22.862Z,10.03
2019-05-17T16:17:56.836Z,7.20
2019-05-17T16:20:29.041Z,6.75
2019-05-17T16:23:01.038Z,35.13
2019-05-17T16:25:34.062Z,13.03
2019-05-17T16:28:05.962Z,13.85
2019-05-17T16:30:37.939Z,14.30
2019-05-17T16:33:11.011Z,4.22
2019-05-17T16:35:44.188Z,4.17
2019-05-17T16:38:16.045Z,5.15
2019-05-17T16:40:47.928Z,4.40
2019-05-17T16:43:20.944Z,6.30
2019-05-17T16:45:53.151Z,6.30
2019-05-17T16:48:25.088Z,6.50
2019-05-17T16:50:57.189Z,6.75
2019-05-17T16:53:29.155Z,6.58
2019-05-17T16:56:01.020Z,6.40
2019-05-17T16:58:33.105Z,5.95
2019-05-17T17:01:06.284Z,8.88
2019-05-17T17:03:44.212Z,10.45
2019-05-17T17:06:12.876Z,8.55
2019-05-17T17:08:44.995Z,8.95
2019-05-17T17:11:17.123Z,8.80
2019-05-17T17:13:49.430Z,8.58
2019-05-17T17:16:21.640Z,5.87
2019-05-17T17:18:53.456Z,10.40
2019-05-17T17:21:25.573Z,6.00
2019-05-17T17:23:57.390Z,6.15
2019-05-17T17:26:29.618Z,9.65
2019-05-17T17:29:02.162Z,5.33
2019-05-17T17:31:34.275Z,5.35
2019-05-17T17:34:06.313Z,5.30
2019-05-17T17:36:39.158Z,4.47
2019-05-17T17:39:10.990Z,5.72
2019-05-17T17:41:43.024Z,4.67
2019-05-17T17:44:15.086Z,6.00
2019-05-17T17:46:46.953Z,4.85
2019-05-17T17:49:18.734Z,6.55
2019-05-17T17:51:50.796Z,5.70
2019-05-17T17:54:22.629Z,4.95
2019-05-17T17:56:55.255Z,6.90
2019-05-17T17:59:27.315Z,5.65
2019-05-17T18:01:59.962Z,6.03
2019-05-17T18:04:31.993Z,6.25
2019-05-17T18:07:05.167Z,6.45
2019-05-17T18:09:36.999Z,6.30
2019-05-17T18:12:08.861Z,7.08
2019-05-17T18:14:40.729Z,7.65
2019-05-17T18:17:12.634Z,6.35
2019-05-17T18:19:44.462Z,5.53
2019-05-17T18:22:16.324Z,6.10
2019-05-17T18:24:48.278Z,5.47
2019-05-17T18:27:20.201Z,6.10
2019-05-17T18:29:52.173Z,8.55
2019-05-17T18:32:24.357Z,5.37
2019-05-17T18:34:56.195Z,7.75
2019-05-17T18:37:28.313Z,8.13
2019-05-17T18:40:00.317Z,5.30
2019-05-17T18:42:32.418Z,5.83
2019-05-17T18:45:04.656Z,6.20
2019-05-17T18:47:36.656Z,5.90
2019-05-17T18:50:10.146Z,7.12
2019-05-17T18:52:42.786Z,5.45
2019-05-17T18:55:16.718Z,8.23
2019-05-17T18:57:50.324Z,7.15
2019-05-17T19:00:24.095Z,5.55
2019-05-17T19:02:56.888Z,5.62
2019-05-17T19:05:29.004Z,6.47
2019-05-17T19:08:01.393Z,5.67
2019-05-17T19:10:33.432Z,9.28
2019-05-17T19:13:05.789Z,6.45
2019-05-17T19:15:38.369Z,6.92
2019-05-17T19:18:10.689Z,5.87
2019-05-17T19:20:42.887Z,7.70
2019-05-17T19:23:15.180Z,8.20
2019-05-17T19:25:47.189Z,8.50
2019-05-17T19:28:19.288Z,5.72
2019-05-17T19:30:51.488Z,6.85
2019-05-17T19:33:23.824Z,7.30
2019-05-17T19:35:55.980Z,10.00
2019-05-17T19:38:28.568Z,6.75
2019-05-17T19:41:00.634Z,5.80
2019-05-17T19:43:33.356Z,8.10
2019-05-17T19:46:05.573Z,8.30
2019-05-17T19:48:37.707Z,8.55
2019-05-17T19:51:09.925Z,5.75
2019-05-17T19:53:42.333Z,7.05
2019-05-17T19:56:14.357Z,8.25
2019-05-17T19:58:46.700Z,6.58
2019-05-17T20:01:18.963Z,6.65
2019-05-17T20:03:51.156Z,7.87
2019-05-17T20:06:23.140Z,8.05
2019-05-17T20:08:55.424Z,6.70
2019-05-17T20:11:34.485Z,9.48
2019-05-17T20:14:01.227Z,11.00
2019-05-17T20:16:33.303Z,8.10
2019-05-17T20:19:05.573Z,9.60
2019-05-17T20:21:37.613Z,7.90
2019-05-17T20:24:09.943Z,7.37
2019-05-17T20:26:41.835Z,7.47
2019-05-17T20:29:13.875Z,6.58
2019-05-17T20:31:46.317Z,10.20
2019-05-17T20:34:18.541Z,7.30
2019-05-17T20:36:50.382Z,10.60
2019-05-17T20:39:22.342Z,7.28
2019-05-17T20:41:57.343Z,9.48
2019-05-17T20:44:28.173Z,6.62
2019-05-17T20:47:00.127Z,6.75
2019-05-17T20:49:32.351Z,7.55
2019-05-17T20:52:04.341Z,11.68
2019-05-17T20:54:36.635Z,7.33
2019-05-17T20:57:09.004Z,8.73
2019-05-17T20:59:40.958Z,9.25
2019-05-17T21:02:13.093Z,11.12
2019-05-17T21:04:44.995Z,11.03
2019-05-17T21:07:17.807Z,9.35
2019-05-17T21:09:50.059Z,11.53
2019-05-17T21:12:21.965Z,10.23
2019-05-17T21:14:56.399Z,9.88
2019-05-17T21:17:27.785Z,11.80
2019-05-17T21:20:00.752Z,14.60
2019-05-17T21:22:32.537Z,9.65
2019-05-17T21:25:04.715Z,14.00
2019-05-17T21:27:36.592Z,9.80
2019-05-17T21:30:09.961Z,11.18
2019-05-17T21:32:42.021Z,13.78
2019-05-17T21:35:14.197Z,12.73
2019-05-17T21:37:46.025Z,13.93
2019-05-17T21:40:18.501Z,11.22
2019-05-17T21:42:50.291Z,13.78
2019-05-17T21:45:22.507Z,14.78
2019-05-17T21:47:54.594Z,12.45
2019-05-17T21:50:28.455Z,14.83
2019-05-17T21:53:01.391Z,17.15
2019-05-17T21:55:33.313Z,13.50
2019-05-17T21:58:06.267Z,17.62
2019-05-17T22:01:20.946Z,14.83
2019-05-17T22:03:53.289Z,17.90
2019-05-17T22:06:25.483Z,17.00
2019-05-17T22:08:57.309Z,15.55
2019-05-17T22:11:29.297Z,19.60
2019-05-17T22:14:01.203Z,19.57
2019-05-17T22:16:33.417Z,17.77
2019-05-17T22:19:05.641Z,17.67
2019-05-17T22:21:37.785Z,17.98
2019-05-17T22:24:09.606Z,17.23
2019-05-17T22:26:43.337Z,17.10
2019-05-17T22:29:16.283Z,18.25
2019-05-17T22:31:48.268Z,17.50
2019-05-17T22:34:22.091Z,16.02
2019-05-17T22:36:54.164Z,16.70
2019-05-17T22:39:25.955Z,17.90
2019-05-17T22:41:57.815Z,18.67
2019-05-17T22:44:30.544Z,16.52
2019-05-17T22:47:03.628Z,15.78
2019-05-17T22:49:35.713Z,14.53
2019-05-17T22:52:07.588Z,20.72
2019-05-17T22:54:39.414Z,15.20
2019-05-17T22:57:11.286Z,16.55
2019-05-17T22:59:43.901Z,16.37
2019-05-17T23:02:15.832Z,15.20
2019-05-17T23:04:47.959Z,17.50
2019-05-17T23:07:20.197Z,14.63
2019-05-17T23:09:52.119Z,15.48
2019-05-17T23:12:24.222Z,15.65
2019-05-17T23:14:56.006Z,14.43
2019-05-17T23:17:28.158Z,15.58
2019-05-17T23:20:00.391Z,15.23
2019-05-17T23:22:32.485Z,15.43
2019-05-17T23:25:04.401Z,16.70
2019-05-17T23:27:36.409Z,14.23
2019-05-17T23:30:10.151Z,13.55
2019-05-17T23:32:42.193Z,17.57
2019-05-17T23:35:14.308Z,14.15
2019-05-17T23:37:46.323Z,16.82
2019-05-17T23:40:18.244Z,16.05
2019-05-17T23:42:49.988Z,14.93
2019-05-17T23:45:21.829Z,14.53
2019-05-17T23:47:53.641Z,16.70
2019-05-17T23:50:25.545Z,17.70
2019-05-17T23:52:57.779Z,16.23
2019-05-17T23:55:29.591Z,16.20
2019-05-17T23:58:01.916Z,20.37
